Terminal Aerodrome Forecast
Issued by NWS

Current Version | Previous Version | Text Only | Print | Product List | Glossary Off
Versions: 1 2 3 4 5 6 7 8 9 10 11 12 13 14 15 16 17 18 19 20 21 22 23 24

147
FTUS41 KILN 252227 AAA
TAFLUK
TAF AMD
KLUK 252227Z 2522/2618 15012KT P6SM BKN130
     FM260200 15005KT P6SM VCSH BKN130
     FM260500 15005KT 6SM -SHRA BR OVC090=

USA.gov is the U.S. government's official web portal to all federal, state and local government web resources and services.